ADDS METAR Data INFO
IDs: Format: Raw Decoded Include TAF

Data at: 2004 UTC 19 Oct 2017

PAJC 191957Z AUTO 26010G15KT 10SM FEW014 BKN048 OVC060 03/M02 A2961 RMK AO2 RAB15E28B54E57SNB28E54 SLP028 P0000 T00331017
PAJC 191952Z AUTO 24008G19KT 9SM -SN FEW014 BKN032 OVC100 03/M01 A2962 RMK AO2 RAB15E28SNB28 P0000
PAJC 191940Z AUTO 24010G14KT 3SM -SN SCT014 BKN029 BKN046 02/M01 A2962 RMK AO2 RAB15E28SNB28 P0000 FZRANO
PAJC 191936Z AUTO 27008KT 2SM -SN SCT014 BKN030 BKN046 02/M01 A2963 RMK AO2 VIS 1 1/4V5 RAB15E28SNB28 P0000 FZRANO
PAJC 191934Z AUTO 25007G17KT 1 3/4SM -SN SCT014 BKN028 BKN046 02/M01 A2963 RMK AO2 VIS 1 1/4V5 RAB15E28SNB28 P0000 FZRANO
PAJC 191901Z AUTO 24016G19KT 10SM FEW010 SCT025 BKN036 03/M02 A2962 RMK AO2
PAJC 191857Z AUTO 23012G20KT 10SM FEW010 BKN025 BKN033 03/M01 A2962 RMK AO2 RAB1759E56SNE1759 SLP030 P0000 T00281011
PAJC 191834Z AUTO 25014G19KT 10SM -RA FEW010 BKN019 OVC047 03/M02 A2963 RMK AO2 RAB1759SNE1759 CIG 015V025 P0000
PAJC 191757Z AUTO 23014G22KT 10SM -SN FEW025 BKN032 BKN044 03/M02 A2963 RMK AO2 PK WND 23027/1726 RAE50SNB30 SLP035 P0000 60004 T00281017 10039 20017 57001
PAJC 191752Z AUTO 24016G22KT 10SM -SN FEW012 SCT025 BKN032 03/M02 A2963 RMK AO2 PK WND 23027/1726 RAE50SNB30 P0000
PAJC 191743Z AUTO 22014G24KT 9SM -RA FEW012 BKN027 BKN050 03/M01 A2963 RMK AO2 PK WND 23027/1726 SNB30E41 CIG 020V037 P0000
PAJC 191732Z AUTO 25015G27KT 8SM -SN SCT014 BKN029 02/M01 A2964 RMK AO2 PK WND 23027/1726 RAE30SNB30 P0000 FZRANO
PAJC 191716Z AUTO 23013G24KT 10SM -RA FEW010 SCT017 BKN040 02/M01 A2964 RMK AO2 P0000 FZRANO
PAJC 191702Z AUTO 22011G23KT 10SM -RA SCT012 BKN024 BKN036 02/M01 A2964 RMK AO2 P0000 FZRANO
PAJC 191638Z AUTO 24014G24KT 10SM -RA FEW015 SCT025 BKN037 03/M01 A2964 RMK AO2 PK WND 23027/1611 RAB05SNE05B23E32 P0001
PAJC 191559Z AUTO 24016G23KT 6SM -SN SCT013 BKN025 OVC039 02/M01 A2963 RMK AO2 RAE04B20E48SNB04E20B48 SLP035 P0001 T00221011 FZRANO
PAJC 191557Z AUTO 23012G22KT 5SM -SN SCT013 BKN027 OVC044 02/M01 A2964 RMK AO2 RAE04B20E48SNB04E20B48 CIG 020V036 P0001 FZRANO
PAJC 191552Z AUTO 26008G20KT 4SM -SN BKN013 BKN033 OVC047 02/M01 A2964 RMK AO2 RAE04B20E48SNB04E20B48 CIG 009V022 P0001 FZRANO
PAJC 191537Z AUTO 28005G16KT 10SM -RA FEW018 BKN031 OVC047 03/M02 A2963 RMK AO2 RAE04B20SNB04E20 P0001
PAJC 191513Z AUTO 27009G21KT 4SM -SN BR SCT010 BKN016 OVC037 02/00 A2965 RMK AO2 RAE04SNB04 P0001 FZRANO
PAJC 191503Z AUTO 26013G21KT 4SM -RA BKN011 BKN022 OVC033 02/M01 A2965 RMK AO2 CIG 007V017 P0000 FZRANO
PAJC 191457Z AUTO 25013G21KT 8SM RA SCT011 BKN032 OVC045 03/M01 A2965 RMK AO2 PK WND 23027/1446 SLP040 P0000 60002 T00281011 53001
PAJC 191448Z AUTO 26015G27KT 10SM -RA FEW009 BKN031 OVC045 03/M01 A2964 RMK AO2 PK WND 23027/1446 P0000
PAJC 191428Z AUTO 24016G27KT 10SM -RA FEW019 BKN034 OVC046 03/M02 A2963 RMK AO2 PK WND 24027/1419 P0000
PAJC 191420Z AUTO 25018G27KT 10SM -RA SCT023 BKN031 OVC049 03/M01 A2964 RMK AO2 PK WND 24027/1419 P0000
PAJC 191411Z AUTO 25016G24KT 8SM -RA SCT019 BKN027 OVC049 03/M01 A2965 RMK AO2 P0000
PAJC 191357Z AUTO 23018G25KT 10SM -RA FEW025 BKN034 BKN055 03/M02 A2963 RMK AO2 PK WND 23026/1333 RAE33B52 SLP035 P0000 T00331017
PAJC 191257Z AUTO 25016G19KT 10SM -RA FEW014 SCT026 SCT055 03/M01 A2964 RMK AO2 PK WND 26028/1148 UPB1157E10SNB1159E09 SLP038 P0002 T00331011
PAJC 191254Z AUTO 24015G19KT 10SM -RA FEW014 SCT021 BKN055 03/M01 A2964 RMK AO2 PK WND 26028/1148 UPB1157E10SNB1159E09 P0002
PAJC 191216Z AUTO 24016G22KT 10SM -RA SCT009 BKN016 OVC028 03/M01 A2965 RMK AO2 PK WND 26028/1148 UPB1157E10SNB1159E09 P0001
PAJC 191159Z AUTO 26012G27KT 3SM -SN BKN009 BKN020 OVC060 02/M01 A2965 RMK AO2 PK WND 26028/1148 RAE57UPB57E59SNB59 CIG 007V012 P0001 FZRANO
PAJC 191153Z AUTO 25017G28KT 3SM -RA BR BKN009 BKN016 OVC060 02/00 A2966 RMK AO2 PK WND 26028/1148 CIG 007V012 P0000 FZRANO
PAJC 191147Z AUTO 27016G27KT 6SM +RA FEW009 BKN025 OVC065 03/M01 A2966 RMK AO2 PK WND 27027/1144 CIG 015V030 P0000
PAJC 191057Z AUTO 25019G28KT 9SM -RA FEW011 BKN031 OVC039 03/M01 A2965 RMK AO2 PK WND 23028/1048 SLP040 P0000 T00331006
PAJC 191036Z AUTO 25017G25KT 10SM -RA BKN030 OVC039 03/M01 A2965 RMK AO2 PK WND 24027/1008 P0000
PAJC 191027Z AUTO 25016G25KT 8SM -RA BKN029 BKN034 OVC042 03/M01 A2965 RMK AO2 PK WND 24027/1008 P0000
PAJC 190957Z AUTO 24023G33KT 10SM -RA FEW023 BKN032 OVC085 04/M01 A2965 RMK AO2 PK WND 24034/0906 SLP039 P0001 T00391006
PAJC 190954Z AUTO 23022G33KT 10SM -RA SCT023 BKN032 04/M01 A2963 RMK AO2 PK WND 24034/0906 P0001
PAJC 190942Z AUTO 24020G30KT 7SM -RA FEW009 BKN027 OVC034 03/M01 A2965 RMK AO2 PK WND 24034/0906 P0001
PAJC 190907Z AUTO 26022G34KT 10SM -RA FEW025 BKN033 OVC050 04/M01 A2965 RMK AO2 PK WND 24034/0906 P0000
PAJC 190904Z AUTO 24016G26KT 10SM -RA FEW019 BKN029 OVC046 04/M01 A2965 RMK AO2 PK WND 25026/0901 P0000
PAJC 190859Z AUTO 24017G26KT 10SM -RA FEW019 BKN034 OVC046 03/M01 A2965 RMK AO2 PK WND 23031/0805 SLP040 P0001 60003 T00331006 51001
PAJC 190857Z AUTO 25016G26KT 10SM -RA FEW019 SCT026 OVC034 03/M01 A2965 RMK AO2 PK WND 23031/0805 P0001
PAJC 190808Z AUTO 25022G31KT 10SM FEW009 BKN031 OVC039 04/M02 A2965 RMK AO2 PK WND 23031/0805 RAE08 P0000
PAJC 190757Z AUTO 24014G27KT 7SM -RA FEW009 BKN020 OVC032 03/00 A2964 RMK AO2 PK WND 23030/0735 SLP039 P0001 T00330000 400610028
PAJC 190750Z AUTO 23019G27KT 5SM -RA FEW009 BKN019 OVC027 03/00 A2964 RMK AO2 PK WND 23030/0735 P0001
PAJC 190732Z AUTO 26015G20KT 10SM RA FEW011 BKN026 OVC042 03/M01 A2964 RMK AO2 P0000
PAJC 190711Z AUTO 26014G23KT 10SM -RA SCT027 BKN041 OVC050 04/M01 A2964 RMK AO2 P0000
PAJC 190657Z AUTO 24014G26KT 10SM -RA SCT017 BKN029 OVC050 03/00 A2964 RMK AO2 PK WND 24030/0629 SLP037 P0001 T00330000
PAJC 190624Z AUTO 26016G21KT 10SM -RA FEW018 BKN025 OVC044 03/M01 A2965 RMK AO2 PK WND 22029/0603 P0001
PAJC 190557Z AUTO 26016G27KT 6SM -RA FEW019 BKN025 OVC032 03/M01 A2964 RMK AO2 PK WND 24033/0516 SLP038 P0000 60003 T00331006 10056 20028 53009
PAJC 190457Z AUTO 26016G27KT 10SM -RA FEW026 BKN035 BKN044 04/M01 A2962 RMK AO2 PK WND 25032/0434 RAB08 SLP032 P0000 T00391006
PAJC 190404Z AUTO 25020G30KT 10SM FEW020 BKN031 04/M01 A2962 RMK AO2 PK WND 25026/0358
PAJC 190326Z AUTO 24021G29KT 10SM BKN029 BKN035 BKN042 04/M01 A2962 RMK AO2 PK WND 24031/0315 RAE06 P0000
PAJC 190257Z AUTO 24016G25KT 10SM -RA FEW019 SCT025 BKN034 04/M01 A2961 RMK AO2 PK WND 23033/0243 SLP028 P0000 60003 T00391006 53004
PAJC 190229Z AUTO 23015G29KT 10SM -RA SCT022 BKN034 OVC075 04/00 A2961 RMK AO2 PK WND 23029/0225 P0000
PAJC 190224Z AUTO 23024G29KT 10SM -RA BKN022 BKN034 OVC080 04/00 A2960 RMK AO2 PK WND 23029/0223 P0000
PAJC 190157Z AUTO 25016G23KT 230V290 10SM -RA SCT030 SCT037 BKN110 04/00 A2961 RMK AO2 PK WND 28027/0125 WSHFT 0116 SLP028 P0003 T00390000
PAJC 190029Z AUTO 29014G22KT 10SM -RA FEW014 BKN045 OVC100 05/M01 A2961 RMK AO2 PK WND 24029/0004 RAB15 P0000
PAJC 190022Z AUTO 26013G26KT 10SM -RA FEW014 BKN029 BKN040 06/M01 A2960 RMK AO2 PK WND 24029/0004 RAB15 P0000
PAJC 182357Z AUTO 25016G25KT 10SM FEW042 SCT049 BKN060 05/00 A2960 RMK AO2 SLP024 60000 T00500000 10061 20028 58003
PAJC 182257Z AUTO 28014G25KT 10SM BKN047 BKN055 06/M03 A2961 RMK AO2 PK WND 29027/2213 RAE08 SLP028 P0000 T00561028
PAJC 182157Z AUTO 27012G20KT 240V300 10SM -RA BKN041 OVC049 05/M02 A2961 RMK AO2 SLP027 P0000 T00501017
PAJC 182120Z AUTO 29011G22KT 7SM -RA FEW009 BKN034 OVC047 04/M01 A2962 RMK AO2 P0000
PAJC 182057Z AUTO 26008G16KT 10SM -RA FEW016 BKN037 OVC046 04/M01 A2961 RMK AO2 PK WND 24027/2018 RAB09 SLP027 P0000 60000 T00391006 53013
PAJC 181857Z AUTO 29009G19KT 10SM -RA FEW030 BKN040 OVC047 04/M02 A2957 RMK AO2 RAE29B55 SLP015 P0000 T00441022
PAJC 181757Z AUTO VRB06G18KT 8SM -RA FEW011 BKN042 OVC050 03/M01 A2957 RMK AO2 SLP014 P0001 60003 T00281006 10039 20028 51013
PAJC 181659Z AUTO 28011G21KT 10SM -RA FEW010 BKN032 OVC049 03/M01 A2956 RMK AO2 P0001
PAJC 181657Z AUTO 27011G21KT 10SM -RA FEW010 BKN029 OVC045 03/M01 A2955 RMK AO2 P0001
PAJC 181652Z AUTO 27013G21KT 250V310 10SM -RA SCT019 BKN034 OVC043 03/M01 A2955 RMK AO2 P0001
PAJC 181622Z AUTO 27008G18KT 10SM RA SCT011 BKN017 OVC041 03/01 A2954 RMK AO2 P0000
PAJC 181602Z AUTO 27008KT 10SM -RA FEW015 BKN035 OVC043 03/01 A2953 RMK AO2 P0000
PAJC 181557Z AUTO 29008KT 10SM -RA FEW016 BKN023 OVC036 03/01 A2953 RMK AO2 SLP001 P0000 T00330006
PAJC 181532Z AUTO 25010G18KT 10SM -RA BKN015 BKN023 OVC032 03/01 A2953 RMK AO2 P0000
PAJC 181425Z AUTO 23017G20KT 10SM -RA FEW009 BKN031 OVC040 03/01 A2950 RMK AO2 PK WND 24028/1358 UPB14E17 P0002
PAJC 181410Z AUTO 25011G18KT 5SM -RA BR SCT009 BKN016 BKN022 03/01 A2951 RMK AO2 PK WND 24028/1358 P0001
PAJC 181402Z AUTO 27012G29KT 8SM RA FEW009 SCT035 BKN048 03/01 A2951 RMK AO2 PK WND 24028/1358 PRESRR P0000
PAJC 181357Z AUTO 24020G29KT 10SM -RA FEW035 SCT050 03/01 A2949 RMK AO2 PK WND 23029/1357 RAE33B56 SLP988 P0000 T00330006
PAJC 181304Z AUTO 26010G19KT 10SM -RA SCT019 BKN026 OVC044 04/01 A2949 RMK AO2 P0000
PAJC 181257Z AUTO 25011KT 10SM -RA FEW021 BKN041 OVC060 04/00 A2949 RMK AO2 RAB48 SLP986 P0000 T00390000
PAJC 181157Z AUTO 28008KT 10SM OVC047 05/M02 A2948 RMK AO2 SLP982 60000 70087 T00501017 10061 20044 51008
PAJC 181057Z AUTO 29010G14KT 260V320 10SM SCT038 04/M01 A2947 RMK AO2 RAE13 SLP980 P0000 T00441006
PAJC 181004Z AUTO 28006G15KT 10SM -RA FEW023 BKN029 OVC047 04/01 A2947 RMK AO2 P0000
PAJC 180957Z AUTO 26010G15KT 10SM -RA FEW021 BKN031 OVC047 04/01 A2947 RMK AO2 RAB23 SLP979 P0000 T00440006
PAJC 180857Z AUTO 25015G21KT 10SM BKN037 05/01 A2945 RMK AO2 RAE02 SLP974 P0000 60000 T00500006 51027